Time,TemperatureF,DewpointF,PressureIn,WindDirection,WindDirectionDegrees,WindSpeedMPH,WindSpeedGustMPH,Humidity,HourlyPrecipIn,Conditions,Clouds,dailyrainin,SoftwareType,DateUTC
2013-03-17 00:00:00,42.1,36.6,29.59,SSW,201,2.7,4.9,81,0.00,,,0.00,WUHU216HW,2013-03-17 07:00:00,
2013-03-17 00:05:00,42.1,36.4,29.60,South,190,0.7,4.9,80,0.00,,,0.00,WUHU216HW,2013-03-17 07:05:00,
2013-03-17 00:10:00,42.1,36.6,29.60,SSW,203,3.8,4.3,81,0.00,,,0.00,WUHU216HW,2013-03-17 07:10:00,
2013-03-17 00:15:00,42.1,36.6,29.60,SSW,200,0.9,4.3,81,0.00,,,0.00,WUHU216HW,2013-03-17 07:15:00,
2013-03-17 00:20:00,42.1,36.6,29.60,SSE,160,1.3,3.8,81,0.00,,,0.00,WUHU216HW,2013-03-17 07:20:00,
2013-03-17 00:25:00,42.3,36.8,29.60,South,180,2.5,3.1,81,0.00,,,0.00,WUHU216HW,2013-03-17 07:25:00,
2013-03-17 00:30:00,42.1,36.6,29.60,South,177,1.7,4.3,81,0.00,,,0.00,WUHU216HW,2013-03-17 07:30:00,
2013-03-17 00:35:00,41.9,36.5,29.60,SSE,158,1.8,4.3,81,0.00,,,0.00,WUHU216HW,2013-03-17 07:35:00,
2013-03-17 00:40:00,41.9,36.5,29.60,SSE,158,2.0,2.9,81,0.00,,,0.00,WUHU216HW,2013-03-17 07:40:00,
2013-03-17 00:45:00,41.9,36.5,29.60,SSE,158,1.8,2.7,81,0.00,,,0.00,WUHU216HW,2013-03-17 07:45:00,
2013-03-17 00:50:00,41.9,36.5,29.60,SSW,203,2.2,4.5,81,0.00,,,0.00,WUHU216HW,2013-03-17 07:50:00,
2013-03-17 00:55:00,41.9,36.5,29.60,SW,225,2.5,4.5,81,0.00,,,0.00,WUHU216HW,2013-03-17 07:55:00,
2013-03-17 01:00:00,41.8,36.3,29.60,South,180,3.6,4.0,81,0.00,,,0.00,WUHU216HW,2013-03-17 08:00:00,
2013-03-17 01:05:00,41.8,36.3,29.60,SSE,158,2.5,4.0,81,0.00,,,0.00,WUHU216HW,2013-03-17 08:05:00,
2013-03-17 01:10:00,41.6,36.1,29.61,SSE,158,2.5,4.7,81,0.00,,,0.00,WUHU216HW,2013-03-17 08:10:00,
2013-03-17 01:15:00,41.6,36.1,29.61,SSE,158,5.8,5.8,81,0.00,,,0.00,WUHU216HW,2013-03-17 08:15:00,
2013-03-17 01:20:00,41.4,35.9,29.61,SSW,203,0.9,5.8,81,0.00,,,0.00,WUHU216HW,2013-03-17 08:20:00,
2013-03-17 01:25:00,41.4,35.9,29.62,SSW,203,2.9,5.8,81,0.00,,,0.00,WUHU216HW,2013-03-17 08:25:00,
2013-03-17 01:30:00,41.0,35.6,29.62,SSE,158,1.8,4.9,81,0.00,,,0.00,WUHU216HW,2013-03-17 08:30:00,
2013-03-17 01:35:00,41.0,35.9,29.62,SSE,158,4.5,4.5,82,0.00,,,0.00,WUHU216HW,2013-03-17 08:35:00,
2013-03-17 01:40:00,40.9,35.7,29.62,SSE,158,2.2,4.5,82,0.00,,,0.00,WUHU216HW,2013-03-17 08:40:00,
2013-03-17 01:45:00,40.7,35.6,29.62,South,180,1.6,4.5,82,0.00,,,0.00,WUHU216HW,2013-03-17 08:45:00,
2013-03-17 01:50:00,40.7,35.6,29.63,SSE,158,2.5,2.5,82,0.00,,,0.00,WUHU216HW,2013-03-17 08:50:00,
2013-03-17 01:55:00,40.3,35.2,29.63,South,180,2.2,2.9,82,0.00,,,0.00,WUHU216HW,2013-03-17 08:55:00,
2013-03-17 02:00:00,40.3,35.6,29.63,SSW,193,0.6,2.9,83,0.00,,,0.00,WUHU216HW,2013-03-17 09:00:00,
2013-03-17 02:05:00,40.3,35.6,29.63,SE,135,0.0,2.2,83,0.00,,,0.00,WUHU216HW,2013-03-17 09:05:00,
2013-03-17 02:10:00,40.1,35.1,29.63,SSE,149,1.3,2.0,82,0.00,,,0.00,WUHU216HW,2013-03-17 09:10:00,
2013-03-17 02:15:00,40.0,34.9,29.63,SSE,157,0.7,2.0,82,0.00,,,0.00,WUHU216HW,2013-03-17 09:15:00,
2013-03-17 02:20:00,40.0,34.9,29.64,South,180,1.1,1.6,82,0.00,,,0.00,WUHU216HW,2013-03-17 09:20:00,
2013-03-17 02:25:00,40.0,34.9,29.63,SSE,162,1.7,2.7,82,0.00,,,0.00,WUHU216HW,2013-03-17 09:25:00,
2013-03-17 02:30:00,40.0,34.9,29.64,South,180,0.7,3.4,82,0.00,,,0.00,WUHU216HW,2013-03-17 09:30:00,
2013-03-17 02:35:00,40.0,35.2,29.64,South,180,1.8,3.4,83,0.00,,,0.00,WUHU216HW,2013-03-17 09:35:00,
2013-03-17 02:40:00,40.0,35.2,29.64,SSW,203,1.8,2.7,83,0.00,,,0.00,WUHU216HW,2013-03-17 09:40:00,
2013-03-17 02:45:00,40.0,35.2,29.64,SSE,158,2.2,3.1,83,0.00,,,0.00,WUHU216HW,2013-03-17 09:45:00,
2013-03-17 02:50:00,39.8,35.0,29.64,SSE,167,0.6,3.1,83,0.00,,,0.00,WUHU216HW,2013-03-17 09:50:00,
2013-03-17 02:55:00,39.8,35.0,29.64,South,180,1.6,3.4,83,0.00,,,0.00,WUHU216HW,2013-03-17 09:55:00,
2013-03-17 03:00:00,39.8,35.0,29.65,SSE,158,0.8,3.4,83,0.00,,,0.00,WUHU216HW,2013-03-17 10:00:00,
2013-03-17 03:05:00,39.8,35.0,29.65,South,180,1.1,3.1,83,0.00,,,0.00,WUHU216HW,2013-03-17 10:05:00,
2013-03-17 03:10:00,39.8,35.0,29.65,SSW,195,1.3,1.8,83,0.00,,,0.00,WUHU216HW,2013-03-17 10:10:00,
2013-03-17 03:15:00,39.8,35.0,29.65,SSE,158,0.9,1.8,83,0.00,,,0.00,WUHU216HW,2013-03-17 10:15:00,
2013-03-17 03:20:00,39.8,35.0,29.65,South,180,1.8,2.0,83,0.00,,,0.00,WUHU216HW,2013-03-17 10:20:00,
2013-03-17 03:25:00,39.8,35.0,29.65,South,175,2.3,3.1,83,0.00,,,0.00,WUHU216HW,2013-03-17 10:25:00,
2013-03-17 03:30:00,40.0,35.2,29.65,SSE,158,2.5,3.4,83,0.00,,,0.00,WUHU216HW,2013-03-17 10:30:00,
2013-03-17 03:35:00,40.0,35.2,29.65,South,169,2.3,5.4,83,0.00,,,0.00,WUHU216HW,2013-03-17 10:35:00,
2013-03-17 03:40:00,40.1,35.4,29.65,South,179,2.0,5.4,83,0.00,,,0.00,WUHU216HW,2013-03-17 10:40:00,
2013-03-17 03:45:00,40.1,35.4,29.66,SSE,158,2.5,4.7,83,0.00,,,0.00,WUHU216HW,2013-03-17 10:45:00,
2013-03-17 03:50:00,40.1,35.4,29.66,South,184,1.8,3.8,83,0.00,,,0.00,WUHU216HW,2013-03-17 10:50:00,
2013-03-17 03:55:00,40.1,35.4,29.66,SE,144,0.8,3.1,83,0.00,,,0.00,WUHU216HW,2013-03-17 10:55:00,
2013-03-17 04:00:00,40.3,35.6,29.66,SSE,158,3.4,3.4,83,0.00,,,0.00,WUHU216HW,2013-03-17 11:00:00,
2013-03-17 04:05:00,40.5,35.7,29.66,SSW,213,1.3,3.4,83,0.00,,,0.00,WUHU216HW,2013-03-17 11:05:00,
2013-03-17 04:10:00,40.7,35.8,29.66,South,180,2.0,3.4,83,0.00,,,0.00,WUHU216HW,2013-03-17 11:10:00,
2013-03-17 04:15:00,40.7,35.8,29.66,SSE,158,3.1,3.4,83,0.00,,,0.00,WUHU216HW,2013-03-17 11:15:00,
2013-03-17 04:20:00,40.9,35.7,29.67,SSW,203,0.9,3.1,82,0.00,,,0.00,WUHU216HW,2013-03-17 11:20:00,
2013-03-17 04:25:00,40.9,35.7,29.67,SSE,154,1.5,3.1,82,0.00,,,0.00,WUHU216HW,2013-03-17 11:25:00,
2013-03-17 04:30:00,41.0,35.9,29.67,South,180,2.2,3.4,82,0.00,,,0.00,WUHU216HW,2013-03-17 11:30:00,
2013-03-17 04:35:00,41.0,35.9,29.67,South,180,1.8,3.8,82,0.00,,,0.00,WUHU216HW,2013-03-17 11:35:00,
2013-03-17 04:40:00,41.0,35.9,29.67,South,174,3.4,4.9,82,0.00,,,0.00,WUHU216HW,2013-03-17 11:40:00,
2013-03-17 04:45:00,41.0,35.9,29.68,South,179,2.1,4.9,82,0.00,,,0.00,WUHU216HW,2013-03-17 11:45:00,
2013-03-17 04:50:00,40.9,35.7,29.68,SSE,165,2.3,3.8,82,0.00,,,0.00,WUHU216HW,2013-03-17 11:50:00,
2013-03-17 04:55:00,40.9,35.7,29.68,SSW,196,1.4,3.8,82,0.00,,,0.00,WUHU216HW,2013-03-17 11:55:00,
2013-03-17 05:00:00,40.9,35.7,29.68,SSE,158,1.3,2.9,82,0.00,,,0.00,WUHU216HW,2013-03-17 12:00:00,
2013-03-17 05:05:00,40.9,35.7,29.68,South,180,0.8,2.9,82,0.00,,,0.00,WUHU216HW,2013-03-17 12:05:00,
2013-03-17 05:10:00,41.0,35.9,29.68,SSE,158,0.0,3.4,82,0.00,,,0.00,WUHU216HW,2013-03-17 12:10:00,
2013-03-17 05:15:00,41.0,35.9,29.69,South,180,1.3,3.4,82,0.00,,,0.00,WUHU216HW,2013-03-17 12:15:00,
2013-03-17 05:20:00,41.0,35.9,29.69,SSE,166,1.5,2.5,82,0.00,,,0.00,WUHU216HW,2013-03-17 12:20:00,
2013-03-17 05:25:00,41.2,36.4,29.69,South,181,2.7,3.8,83,0.00,,,0.00,WUHU216HW,2013-03-17 12:25:00,
2013-03-17 05:30:00,41.2,36.4,29.69,South,185,2.0,3.8,83,0.00,,,0.00,WUHU216HW,2013-03-17 12:30:00,
2013-03-17 05:35:00,41.2,36.4,29.69,South,180,2.0,3.4,83,0.00,,,0.00,WUHU216HW,2013-03-17 12:35:00,
2013-03-17 05:40:00,41.0,36.2,29.69,South,180,1.8,3.4,83,0.00,,,0.00,WUHU216HW,2013-03-17 12:40:00,
2013-03-17 05:45:00,41.0,36.2,29.69,South,175,1.5,3.4,83,0.00,,,0.00,WUHU216HW,2013-03-17 12:45:00,
2013-03-17 05:50:00,41.0,36.2,29.70,South,180,2.5,4.0,83,0.00,,,0.00,WUHU216HW,2013-03-17 12:50:00,
2013-03-17 05:55:00,41.0,36.2,29.70,SSE,158,0.9,4.0,83,0.00,,,0.00,WUHU216HW,2013-03-17 12:55:00,
2013-03-17 06:00:00,41.2,36.4,29.70,South,190,0.3,3.4,83,0.00,,,0.00,WUHU216HW,2013-03-17 13:00:00,
2013-03-17 06:05:00,41.2,36.1,29.70,SSE,158,0.9,2.0,82,0.00,,,0.00,WUHU216HW,2013-03-17 13:05:00,
2013-03-17 06:10:00,41.2,36.1,29.70,South,180,1.1,2.7,82,0.00,,,0.00,WUHU216HW,2013-03-17 13:10:00,
2013-03-17 06:15:00,41.2,36.1,29.70,South,180,1.1,3.4,82,0.00,,,0.00,WUHU216HW,2013-03-17 13:15:00,
2013-03-17 06:20:00,41.2,36.1,29.70,South,180,1.8,3.4,82,0.00,,,0.00,WUHU216HW,2013-03-17 13:20:00,
2013-03-17 06:25:00,41.2,36.1,29.71,SSE,162,3.1,4.7,82,0.00,,,0.00,WUHU216HW,2013-03-17 13:25:00,
2013-03-17 06:30:00,41.0,35.9,29.72,South,178,2.2,4.7,82,0.00,,,0.00,WUHU216HW,2013-03-17 13:30:00,
2013-03-17 06:35:00,41.0,35.6,29.72,South,175,2.6,4.9,81,0.00,,,0.00,WUHU216HW,2013-03-17 13:35:00,
2013-03-17 06:40:00,41.0,35.9,29.72,SSE,166,1.8,4.9,82,0.00,,,0.00,WUHU216HW,2013-03-17 13:40:00,
2013-03-17 06:45:00,41.2,35.7,29.72,SSW,203,3.4,3.4,81,0.00,,,0.00,WUHU216HW,2013-03-17 13:45:00,
2013-03-17 06:50:00,41.2,35.7,29.72,South,181,2.8,5.1,81,0.00,,,0.00,WUHU216HW,2013-03-17 13:50:00,
2013-03-17 06:55:00,41.0,35.6,29.73,South,180,2.5,5.1,81,0.00,,,0.00,WUHU216HW,2013-03-17 13:55:00,
2013-03-17 07:00:00,41.0,35.6,29.73,SSE,158,1.1,4.0,81,0.00,,,0.00,WUHU216HW,2013-03-17 14:00:00,
2013-03-17 07:05:00,41.0,35.6,29.73,SSE,163,2.7,4.3,81,0.00,,,0.00,WUHU216HW,2013-03-17 14:05:00,
2013-03-17 07:10:00,40.9,35.5,29.73,SSE,160,1.8,4.3,81,0.00,,,0.00,WUHU216HW,2013-03-17 14:10:00,
2013-03-17 07:15:00,40.9,35.5,29.72,South,180,2.0,3.8,81,0.00,,,0.00,WUHU216HW,2013-03-17 14:15:00,
2013-03-17 07:20:00,40.7,35.3,29.73,South,180,4.0,4.3,81,0.00,,,0.00,WUHU216HW,2013-03-17 14:20:00,
2013-03-17 07:21:00,40.7,35.3,29.73,SSE,158,3.4,3.4,81,0.00,,,0.00,WUHU216HW,2013-03-17 14:21:00,
2013-03-17 07:25:00,40.7,35.3,29.73,SSE,158,3.4,4.3,81,0.00,,,0.00,WUHU216HW,2013-03-17 14:25:00,
2013-03-17 07:30:00,40.7,35.3,29.73,SSE,158,3.4,3.4,81,0.00,,,0.00,WUHU216HW,2013-03-17 14:30:00,
2013-03-17 08:00:00,40.9,35.5,29.75,South,180,2.5,2.5,81,0.00,,,0.00,WUHU216HW,2013-03-17 15:00:00,
2013-03-17 08:05:00,40.9,35.5,29.75,South,180,2.5,2.5,81,0.00,,,0.00,WUHU216HW,2013-03-17 15:05:00,
2013-03-17 09:00:00,47.2,40.7,29.77,SW,225,1.8,1.8,78,0.00,,,0.00,WUHU216HW,2013-03-17 16:00:00,
2013-03-17 09:05:00,47.2,40.7,29.77,SW,225,1.8,1.8,78,0.00,,,0.00,WUHU216HW,2013-03-17 16:05:00,
2013-03-17 10:00:00,57.1,40.6,29.80,South,180,1.6,1.6,54,0.00,,,0.00,WUHU216HW,2013-03-17 17:00:00,
2013-03-17 10:05:00,57.1,40.6,29.80,South,180,1.6,1.6,54,0.00,,,0.00,WUHU216HW,2013-03-17 17:05:00,
2013-03-17 11:00:00,54.9,36.6,29.81,SW,225,1.1,1.1,50,0.00,,,0.00,WUHU216HW,2013-03-17 18:00:00,
2013-03-17 11:05:00,54.9,36.6,29.81,SW,225,1.1,1.1,50,0.00,,,0.00,WUHU216HW,2013-03-17 18:05:00,
2013-03-17 12:00:00,60.3,39.9,29.81,SSW,203,1.3,1.3,47,0.00,,,0.00,WUHU216HW,2013-03-17 19:00:00,
2013-03-17 12:05:00,60.3,39.9,29.81,SSW,203,1.3,1.3,47,0.00,,,0.00,WUHU216HW,2013-03-17 19:05:00,
2013-03-17 13:00:00,63.9,39.2,29.81,WSW,248,2.2,2.2,40,0.00,,,0.00,WUHU216HW,2013-03-17 20:00:00,
2013-03-17 13:05:00,63.9,39.2,29.81,WSW,248,2.2,2.2,40,0.00,,,0.00,WUHU216HW,2013-03-17 20:05:00,
2013-03-17 14:00:00,57.6,36.9,29.80,SW,225,2.5,2.5,46,0.00,,,0.00,WUHU216HW,2013-03-17 21:00:00,
2013-03-17 14:05:00,57.6,36.9,29.80,SW,225,2.5,2.5,46,0.00,,,0.00,WUHU216HW,2013-03-17 21:05:00,
2013-03-17 15:00:00,55.1,36.2,29.79,SSE,158,3.8,3.8,49,0.00,,,0.00,WUHU216HW,2013-03-17 22:00:00,
2013-03-17 15:05:00,55.1,36.2,29.79,SSE,158,3.8,3.8,49,0.00,,,0.00,WUHU216HW,2013-03-17 22:05:00,
2013-03-17 16:00:00,52.0,34.9,29.79,SW,225,4.0,4.0,52,0.00,,,0.00,WUHU216HW,2013-03-17 23:00:00,
2013-03-17 16:05:00,52.0,34.9,29.79,SW,225,4.0,4.0,52,0.00,,,0.00,WUHU216HW,2013-03-17 23:05:00,
2013-03-17 17:00:00,49.7,34.1,29.79,WNW,293,0.2,0.2,55,0.00,,,0.00,WUHU216HW,2013-03-18 00:00:00,
2013-03-17 17:05:00,49.7,34.1,29.79,WNW,293,0.2,0.2,55,0.00,,,0.00,WUHU216HW,2013-03-18 00:05:00,
2013-03-17 18:00:00,48.1,33.5,29.79,SW,225,5.6,5.6,57,0.00,,,0.00,WUHU216HW,2013-03-18 01:00:00,
2013-03-17 19:00:00,46.1,33.8,29.78,SW,225,2.5,2.5,62,0.00,,,0.00,WUHU216HW,2013-03-18 02:00:00,
2013-03-17 19:05:00,46.1,33.8,29.78,SW,225,2.5,2.5,62,0.00,,,0.00,WUHU216HW,2013-03-18 02:05:00,
2013-03-17 20:00:00,44.6,34.3,29.78,South,180,1.1,1.1,67,0.00,,,0.00,WUHU216HW,2013-03-18 03:00:00,
2013-03-17 20:05:00,44.6,34.3,29.78,South,180,1.1,1.1,67,0.00,,,0.00,WUHU216HW,2013-03-18 03:05:00,
2013-03-17 21:00:00,43.9,34.8,29.79,South,180,2.5,2.5,70,0.00,,,0.00,WUHU216HW,2013-03-18 04:00:00,
2013-03-17 21:05:00,43.9,34.8,29.79,South,180,2.5,2.5,70,0.00,,,0.00,WUHU216HW,2013-03-18 04:05:00,
2013-03-17 22:00:00,43.0,34.3,29.80,SSW,203,0.9,0.9,71,0.00,,,0.00,WUHU216HW,2013-03-18 05:00:00,
2013-03-17 22:05:00,43.0,34.3,29.80,SSW,203,0.9,0.9,71,0.00,,,0.00,WUHU216HW,2013-03-18 05:05:00,
2013-03-17 22:59:00,42.1,34.4,29.81,SSE,158,2.0,2.0,74,0.00,,,0.00,WUHU216HW,2013-03-18 05:59:00,
2013-03-17 23:00:00,42.1,34.4,29.81,SSE,158,2.0,2.0,74,0.00,,,0.00,WUHU216HW,2013-03-18 06:00:00,
2013-03-17 23:05:00,42.1,34.4,29.81,SSE,158,2.0,2.0,74,0.00,,,0.00,WUHU216HW,2013-03-18 06:05:00,
2013-03-17 23:59:00,42.3,34.9,29.79,SSW,203,6.3,6.3,75,0.00,,,0.00,WUHU216HW,2013-03-18 06:59:00,